Time;durP1;ratioP1;P1;durP2;ratioP2;P2;SDS_P1;SDS_P2;PMS_P1;PMS_P2;Temp;Humidity;BMP_temperature;BMP_pressure;BME280_temperature;BME280_humidity;BME280_pressure;Samples;Min_cycle;Max_cycle;Signal;HPM_P1;HPM_P2
2022/11/14 00:02:22;;;;;;;;;42.67;34.33;;;;;10.48;70.16;101004.91;4980906;28;45429;-68
2022/11/14 00:04:47;;;;;;;;;34.00;29.33;;;;;10.22;70.56;100988.63;4981099;28;45476;-69
2022/11/14 00:07:14;;;;;;;;;39.00;33.67;;;;;10.24;71.13;101007.94;4981347;28;45433;-68
2022/11/14 00:09:41;;;;;;;;;34.33;32.67;;;;;10.07;71.14;100988.97;4980386;28;46415;-68
2022/11/14 00:12:10;;;;;;;;;48.33;38.33;;;;;10.04;71.75;101002.50;4980545;28;45867;-68
2022/11/14 00:14:36;;;;;;;;;43.67;37.33;;;;;9.28;71.65;100849.06;4980773;28;46442;-70
2022/11/14 00:17:02;;;;;;;;;42.67;37.33;;;;;10.28;71.76;100998.69;4981323;28;45528;-67
2022/11/14 00:19:28;;;;;;;;;43.00;37.67;;;;;9.79;71.32;100923.28;4981922;28;46706;-69
2022/11/14 00:21:53;;;;;;;;;50.67;40.33;;;;;10.20;71.43;100998.47;4982097;28;51946;-68
2022/11/14 00:24:20;;;;;;;;;43.33;38.67;;;;;10.21;71.80;100992.22;4981129;28;45310;-69
2022/11/14 00:26:45;;;;;;;;;45.00;36.67;;;;;10.23;71.30;100995.63;4980685;28;45553;-68
2022/11/14 00:29:11;;;;;;;;;49.00;37.33;;;;;10.16;71.75;100994.44;4995330;28;47556;-69
2022/11/14 00:31:37;;;;;;;;;47.00;34.67;;;;;9.77;71.72;100923.41;4980706;28;45421;-72
2022/11/14 00:34:02;;;;;;;;;48.00;37.67;;;;;10.09;72.14;100977.34;4961338;28;45927;-69
2022/11/14 00:36:27;;;;;;;;;47.00;38.67;;;;;10.10;71.68;100989.66;4959236;28;45421;-68
2022/11/14 00:38:56;;;;;;;;;45.33;37.67;;;;;9.99;71.94;100967.53;4959098;28;45793;-68
2022/11/14 00:41:21;;;;;;;;;42.67;35.67;;;;;8.91;72.08;100809.81;4960304;28;45466;-68
2022/11/14 00:43:46;;;;;;;;;37.33;34.33;;;;;9.84;71.89;100957.44;4974632;28;45516;-69
2022/11/14 00:46:12;;;;;;;;;37.33;35.00;;;;;9.96;71.78;100983.72;4975862;28;45493;-69
2022/11/14 00:48:38;;;;;;;;;35.33;32.33;;;;;9.24;71.94;100864.41;4960428;28;45569;-69
2022/11/14 00:51:03;;;;;;;;;38.67;32.33;;;;;9.96;71.88;100986.38;4959151;28;45359;-68
2022/11/14 00:53:29;;;;;;;;;38.33;34.00;;;;;9.91;71.58;100959.41;4959541;28;45407;-69
2022/11/14 00:55:54;;;;;;;;;40.67;30.33;;;;;9.93;71.65;100962.75;4960805;28;45329;-70
2022/11/14 00:58:19;;;;;;;;;36.00;33.00;;;;;10.03;71.59;100966.31;4960466;28;46622;-70
2022/11/14 01:00:45;;;;;;;;;41.67;36.00;;;;;10.00;71.73;100973.69;4960227;28;45459;-68
2022/11/14 01:03:10;;;;;;;;;45.00;35.33;;;;;9.82;71.60;100938.97;4960418;28;45536;-69
2022/11/14 01:05:44;;;;;;;;;38.67;35.00;;;;;9.56;71.52;100896.09;4980377;28;45418;-68
2022/11/14 01:08:10;;;;;;;;;33.33;29.67;;;;;9.81;71.83;100939.94;4980430;28;46622;-67
2022/11/14 01:10:43;;;;;;;;;38.00;32.33;;;;;9.44;72.15;100890.06;4980206;28;45317;-68
2022/11/14 01:13:09;;;;;;;;;42.33;36.00;;;;;9.83;72.13;100969.03;4994947;28;45377;-68
2022/11/14 01:15:39;;;;;;;;;43.33;36.00;;;;;9.13;72.63;100851.22;4979810;28;45393;-69
2022/11/14 01:18:05;;;;;;;;;42.33;36.33;;;;;9.79;72.72;100963.13;4979260;28;46250;-68
2022/11/14 01:20:30;;;;;;;;;42.00;37.33;;;;;9.71;72.65;100947.88;4979328;28;45261;-68
2022/11/14 01:22:55;;;;;;;;;36.33;32.67;;;;;9.87;72.25;100957.16;4979635;28;45542;-68
2022/11/14 01:25:21;;;;;;;;;42.00;34.00;;;;;9.42;72.08;100852.22;4979858;28;45581;-67
2022/11/14 01:27:46;;;;;;;;;48.67;36.00;;;;;9.98;72.24;100931.31;4977830;28;47586;-68
2022/11/14 01:30:12;;;;;;;;;31.33;28.67;;;;;10.01;71.53;100916.91;4979380;28;45416;-69
2022/11/14 01:32:37;;;;;;;;;33.33;31.33;;;;;10.17;71.43;100941.16;4979435;28;45318;-68
2022/11/14 01:35:03;;;;;;;;;33.00;29.67;;;;;9.67;71.16;100850.88;4979255;28;45499;-69
2022/11/14 01:37:28;;;;;;;;;41.33;36.00;;;;;10.24;71.62;100930.88;4959640;28;46513;-68
2022/11/14 01:39:53;;;;;;;;;39.00;35.33;;;;;10.14;70.85;100917.50;4959715;28;45393;-69
2022/11/14 01:42:19;;;;;;;;;42.00;35.00;;;;;10.28;71.13;100932.28;4959475;28;58311;-68
2022/11/14 01:44:52;;;;;;;;;47.67;36.33;;;;;10.18;70.63;100918.06;4960454;28;45417;-69
2022/11/14 01:47:25;;;;;;;;;47.67;35.67;;;;;10.24;70.54;100914.94;4959607;28;45713;-69
2022/11/14 01:49:54;;;;;;;;;42.33;34.67;;;;;9.53;71.16;100799.97;4959351;28;45323;-69
2022/11/14 01:52:26;;;;;;;;;6.33;4.00;;;;;10.25;71.34;100913.94;4959598;28;45537;-69
2022/11/14 01:54:54;;;;;;;;;42.33;34.33;;;;;10.21;70.79;100894.78;4958258;28;45569;-70
2022/11/14 01:57:28;;;;;;;;;42.00;33.67;;;;;10.13;70.64;100876.00;4959209;28;45676;-69
2022/11/14 01:59:56;;;;;;;;;41.00;35.67;;;;;10.29;70.43;100910.88;4959370;28;45389;-67
2022/11/14 02:02:24;;;;;;;;;33.67;32.67;;;;;10.16;70.92;100888.16;4959702;28;45359;-69
2022/11/14 02:05:06;;;;;;;;;39.00;32.00;;;;;9.74;70.69;100814.00;4974942;28;45464;-67
2022/11/14 02:07:37;;;;;;;;;40.00;34.00;;;;;10.02;70.24;100852.22;4978777;28;46026;-68
2022/11/14 02:10:07;;;;;;;;;38.00;30.00;;;;;10.37;69.94;100928.78;4994094;28;45521;-69
2022/11/14 02:12:33;;;;;;;;;47.00;38.00;;;;;10.34;70.14;100910.44;4978573;28;45620;-69
2022/11/14 02:15:00;;;;;;;;;39.33;34.33;;;;;10.19;70.08;100895.84;4978856;28;45450;-68
2022/11/14 02:17:26;;;;;;;;;32.00;31.00;;;;;9.64;70.32;100807.84;4978764;28;45332;-68
2022/11/14 02:19:54;;;;;;;;;36.00;32.67;;;;;10.20;70.48;100902.84;4978595;28;45295;-68
2022/11/14 02:22:20;;;;;;;;;33.00;31.67;;;;;10.09;70.44;100916.25;4977358;28;45586;-69
2022/11/14 02:24:45;;;;;;;;;47.33;36.00;;;;;10.07;70.92;100927.88;4978654;28;45311;-67
2022/11/14 02:27:12;;;;;;;;;38.33;34.33;;;;;10.07;70.60;100908.44;4978566;28;45439;-68
2022/11/14 02:29:38;;;;;;;;;39.33;32.00;;;;;10.05;71.32;100903.25;4978662;28;45274;-68
2022/11/14 02:32:04;;;;;;;;;39.00;35.00;;;;;10.10;71.33;100904.66;4979371;28;45311;-69
2022/11/14 02:34:29;;;;;;;;;32.67;28.67;;;;;10.12;71.33;100900.03;4977221;28;45204;-68
2022/11/14 02:36:55;;;;;;;;;38.00;32.33;;;;;10.11;71.10;100896.53;4978142;28;46135;-69
2022/11/14 02:39:21;;;;;;;;;40.00;33.33;;;;;10.03;71.52;100881.31;4978718;28;45263;-69
2022/11/14 02:41:46;;;;;;;;;38.33;32.33;;;;;10.01;71.32;100875.28;4979682;28;45505;-69
2022/11/14 02:44:12;;;;;;;;;40.33;32.33;;;;;9.98;70.70;100870.22;4978691;28;45221;-68
2022/11/14 02:46:37;;;;;;;;;32.33;27.00;;;;;9.85;71.37;100867.00;4977956;28;46027;-69
2022/11/14 02:49:02;;;;;;;;;31.00;28.33;;;;;10.00;71.54;100883.38;4978278;28;45315;-68
2022/11/14 02:51:27;;;;;;;;;34.67;32.33;;;;;9.98;71.82;100886.16;4978336;28;45428;-70
2022/11/14 02:53:53;;;;;;;;;28.33;24.33;;;;;9.88;71.31;100873.84;4978447;28;45887;-68
2022/11/14 02:56:18;;;;;;;;;30.33;26.33;;;;;10.02;70.89;100873.47;4979324;28;46764;-70
2022/11/14 02:58:44;;;;;;;;;30.33;29.33;;;;;10.16;70.60;100870.41;4981170;28;45424;-69
2022/11/14 03:01:09;;;;;;;;;28.67;25.33;;;;;9.99;70.56;100833.88;4978221;28;45437;-66
2022/11/14 03:03:35;;;;;;;;;28.33;25.33;;;;;9.51;70.36;100764.78;4978156;28;45287;-70
2022/11/14 03:06:01;;;;;;;;;28.67;28.67;;;;;10.00;70.60;100857.66;4977993;28;46431;-71
2022/11/14 03:08:26;;;;;;;;;27.33;22.67;;;;;9.99;70.13;100834.72;4977954;28;45627;-67
2022/11/14 03:10:52;;;;;;;;;31.33;28.33;;;;;9.80;70.95;100813.44;4977415;28;45324;-67
2022/11/14 03:13:17;;;;;;;;;25.00;20.67;;;;;10.03;71.00;100846.78;4978088;28;45496;-69
2022/11/14 03:15:43;;;;;;;;;24.33;23.00;;;;;9.93;71.53;100843.25;4977436;28;46599;-68
2022/11/14 03:18:08;;;;;;;;;30.00;24.00;;;;;9.95;71.21;100849.25;4978093;28;45538;-67
2022/11/14 03:20:34;;;;;;;;;23.00;20.00;;;;;9.91;71.11;100841.72;4992776;28;45408;-69
2022/11/14 03:23:00;;;;;;;;;24.33;20.33;;;;;9.76;71.18;100825.31;4977990;28;45368;-67
2022/11/14 03:25:25;;;;;;;;;29.33;27.00;;;;;9.84;71.18;100833.47;4977523;28;45553;-68
2022/11/14 03:27:50;;;;;;;;;26.67;23.67;;;;;9.60;71.35;100796.63;4977389;28;45332;-68
2022/11/14 03:30:16;;;;;;;;;23.00;23.00;;;;;9.93;70.94;100851.22;4977574;28;45237;-70
2022/11/14 03:32:41;;;;;;;;;25.00;25.00;;;;;9.87;71.57;100846.47;4977781;28;45172;-68
2022/11/14 03:35:07;;;;;;;;;27.00;24.33;;;;;9.79;71.79;100834.81;4977427;28;46443;-69
2022/11/14 03:37:33;;;;;;;;;35.33;29.67;;;;;9.93;71.47;100855.69;4977144;28;45550;-68
2022/11/14 03:39:58;;;;;;;;;28.00;25.33;;;;;9.63;71.31;100807.00;4977734;28;45372;-68
2022/11/14 03:42:23;;;;;;;;;25.00;23.00;;;;;9.97;71.60;100863.25;4977833;28;45567;-69
2022/11/14 03:44:49;;;;;;;;;24.67;24.00;;;;;10.00;71.14;100859.47;4977796;28;45559;-68
2022/11/14 03:47:14;;;;;;;;;24.00;22.33;;;;;10.03;71.02;100857.41;4977847;28;45417;-68
2022/11/14 03:49:39;;;;;;;;;26.00;22.67;;;;;10.10;70.94;100862.16;4977488;28;45448;-70
2022/11/14 03:52:05;;;;;;;;;26.33;22.33;;;;;9.85;71.01;100829.81;4978614;28;45498;-68
2022/11/14 03:54:30;;;;;;;;;26.00;23.33;;;;;9.81;71.22;100806.31;4975781;28;47663;-67
2022/11/14 03:56:55;;;;;;;;;25.33;20.00;;;;;9.91;71.35;100821.31;4977274;28;45457;-68
2022/11/14 03:59:21;;;;;;;;;26.67;24.33;;;;;9.87;71.34;100819.06;4977345;28;45428;-68
2022/11/14 04:01:47;;;;;;;;;25.00;22.00;;;;;10.09;70.84;100852.50;4977720;28;45270;-69
2022/11/14 04:04:13;;;;;;;;;25.00;23.00;;;;;10.14;71.54;100842.28;4977135;28;46862;-68
2022/11/14 04:06:39;;;;;;;;;24.33;22.00;;;;;10.10;71.08;100824.97;4976658;28;45366;-69
2022/11/14 04:09:05;;;;;;;;;24.33;21.33;;;;;9.68;71.14;100780.06;4977249;28;45452;-68
2022/11/14 04:11:31;;;;;;;;;22.33;20.00;;;;;9.96;71.68;100835.00;4977021;28;45538;-68
2022/11/14 04:13:56;;;;;;;;;20.00;19.00;;;;;10.03;71.36;100846.78;4993242;28;46723;-67
2022/11/14 04:16:21;;;;;;;;;21.33;18.67;;;;;10.02;71.36;100845.09;4977360;28;45476;-69
2022/11/14 04:18:47;;;;;;;;;23.33;19.33;;;;;9.93;71.65;100813.19;4992060;28;45287;-68
2022/11/14 04:21:12;;;;;;;;;21.33;16.33;;;;;10.10;71.33;100839.06;4977194;28;45180;-69
2022/11/14 04:23:37;;;;;;;;;21.67;20.00;;;;;10.07;72.28;100842.03;4976487;28;59718;-68
2022/11/14 04:26:03;;;;;;;;;23.67;19.67;;;;;10.11;71.42;100850.53;4977030;28;45522;-69
2022/11/14 04:28:28;;;;;;;;;20.33;19.33;;;;;10.12;71.21;100842.44;4979578;28;45454;-69
2022/11/14 04:30:53;;;;;;;;;28.67;24.67;;;;;9.88;71.53;100808.31;4980462;28;45318;-67
2022/11/14 04:33:19;;;;;;;;;18.00;18.00;;;;;10.09;71.47;100837.41;4980182;28;45603;-69
2022/11/14 04:35:44;;;;;;;;;25.00;19.00;;;;;10.13;71.34;100854.75;4980324;28;45305;-68
2022/11/14 04:38:09;;;;;;;;;23.33;19.00;;;;;10.13;71.26;100845.94;4979992;28;45302;-69
2022/11/14 04:40:35;;;;;;;;;22.33;17.67;;;;;10.12;71.43;100828.31;4980646;28;45278;-68
2022/11/14 04:43:00;;;;;;;;;20.00;18.00;;;;;10.15;71.30;100833.34;4980054;28;45613;-70
2022/11/14 04:45:26;;;;;;;;;30.67;28.67;;;;;9.85;71.59;100782.03;4978884;28;68847;-69
2022/11/14 04:47:51;;;;;;;;;26.67;23.33;;;;;9.04;71.51;100656.63;4980343;28;45246;-68
2022/11/14 04:50:17;;;;;;;;;28.67;25.00;;;;;10.14;71.47;100831.66;4980358;28;45651;-67
2022/11/14 04:52:42;;;;;;;;;28.33;22.00;;;;;10.21;71.81;100832.81;4979985;28;45716;-68
2022/11/14 04:55:08;;;;;;;;;21.33;18.00;;;;;10.19;71.40;100827.59;4979969;28;45481;-68
2022/11/14 04:57:33;;;;;;;;;24.67;22.33;;;;;10.21;71.24;100827.50;4995056;28;45310;-68
2022/11/14 04:59:58;;;;;;;;;25.00;22.33;;;;;10.27;71.80;100825.13;4979921;28;45216;-68
2022/11/14 05:02:24;;;;;;;;;23.33;19.00;;;;;9.67;70.97;100707.53;4979764;28;46393;-69
2022/11/14 05:04:49;;;;;;;;;22.33;18.33;;;;;10.28;70.78;100799.41;4979634;28;45373;-69
2022/11/14 05:07:14;;;;;;;;;22.00;19.33;;;;;10.03;70.82;100764.44;4978490;28;45617;-68
2022/11/14 05:09:40;;;;;;;;;29.67;23.67;;;;;10.35;71.18;100814.63;4980025;28;45288;-68
2022/11/14 05:12:06;;;;;;;;;26.67;22.33;;;;;9.94;70.62;100744.00;4979408;28;45893;-68
2022/11/14 05:14:32;;;;;;;;;24.00;20.33;;;;;10.27;71.03;100795.06;4994523;28;45435;-69
2022/11/14 05:16:57;;;;;;;;;25.00;24.00;;;;;10.10;70.80;100758.56;4978506;28;45418;-68
2022/11/14 05:19:23;;;;;;;;;19.67;17.67;;;;;10.34;71.22;100804.16;4979634;28;45274;-68
2022/11/14 05:21:48;;;;;;;;;23.67;20.00;;;;;10.35;71.48;100793.38;4979580;28;46577;-69
2022/11/14 05:24:15;;;;;;;;;22.00;19.00;;;;;10.35;71.44;100798.69;4979389;28;45409;-68
2022/11/14 05:26:40;;;;;;;;;21.00;19.33;;;;;9.68;71.26;100692.44;4979862;28;45359;-69
2022/11/14 05:29:06;;;;;;;;;26.33;20.00;;;;;10.33;71.50;100800.66;4978913;28;45532;-69
2022/11/14 05:31:31;;;;;;;;;34.67;24.67;;;;;10.34;71.82;100793.53;4978982;28;45755;-68
2022/11/14 05:33:57;;;;;;;;;27.67;23.67;;;;;9.49;71.35;100652.63;4979108;28;45438;-69
2022/11/14 05:36:22;;;;;;;;;24.67;22.67;;;;;10.30;71.63;100789.47;4979096;28;45311;-69
2022/11/14 05:38:47;;;;;;;;;22.67;22.00;;;;;10.32;71.54;100788.34;4978289;28;45366;-69
2022/11/14 05:41:15;;;;;;;;;24.00;20.33;;;;;10.33;71.29;100782.06;4978993;28;46779;-67
2022/11/14 05:43:41;;;;;;;;;21.67;19.67;;;;;10.33;70.74;100783.88;4979093;28;45468;-69
2022/11/14 05:46:10;;;;;;;;;27.67;20.33;;;;;10.34;71.40;100782.88;4979216;28;45153;-70
2022/11/14 05:48:36;;;;;;;;;23.00;18.50;;;;;10.29;71.22;100782.47;4979770;28;45423;-69
2022/11/14 05:51:03;;;;;;;;;24.00;20.00;;;;;10.13;70.82;100726.38;4978937;28;46569;-67
2022/11/14 05:53:30;;;;;;;;;20.00;20.00;;;;;10.38;71.02;100770.16;4979061;28;45803;-69
2022/11/14 05:56:01;;;;;;;;;24.00;17.00;;;;;10.38;70.90;100771.00;4977781;28;45229;-70
2022/11/14 05:58:26;;;;;;;;;20.33;20.00;;;;;10.28;71.12;100747.09;4979431;28;45479;-69
2022/11/14 06:00:52;;;;;;;;;21.00;20.00;;;;;10.17;70.95;100736.56;4978790;28;47978;-69
2022/11/14 06:03:17;;;;;;;;;18.67;18.67;;;;;9.95;71.17;100695.22;4979126;28;45527;-70
2022/11/14 06:05:42;;;;;;;;;25.00;21.67;;;;;10.32;70.60;100750.31;4979053;28;45560;-69
2022/11/14 06:08:08;;;;;;;;;29.67;23.67;;;;;10.37;70.99;100756.03;4979022;28;45413;-70
2022/11/14 06:10:34;;;;;;;;;19.00;18.00;;;;;10.25;70.56;100741.25;4978431;28;46283;-68
2022/11/14 06:13:00;;;;;;;;;22.67;18.33;;;;;10.31;70.77;100754.78;4977742;28;46268;-70
2022/11/14 06:15:25;;;;;;;;;23.33;20.33;;;;;10.16;71.19;100734.91;4978204;28;45304;-69
2022/11/14 06:17:52;;;;;;;;;22.33;20.00;;;;;9.93;71.16;100707.81;4978987;28;45167;-70
2022/11/14 06:20:17;;;;;;;;;22.33;17.33;;;;;9.89;71.25;100701.09;4978598;28;45585;-68
2022/11/14 06:22:43;;;;;;;;;25.33;21.00;;;;;10.24;72.21;100760.81;4977693;28;45385;-69
2022/11/14 06:25:08;;;;;;;;;20.33;18.00;;;;;9.84;71.97;100698.03;4978552;28;45808;-68
2022/11/14 06:27:34;;;;;;;;;20.00;19.33;;;;;10.23;71.45;100759.16;4978265;28;45532;-69
2022/11/14 06:29:59;;;;;;;;;25.00;20.00;;;;;10.23;71.88;100757.31;4992838;28;47050;-69
2022/11/14 06:32:25;;;;;;;;;26.67;24.00;;;;;10.28;71.37;100762.22;4978410;28;45381;-69
2022/11/14 06:34:50;;;;;;;;;20.00;17.67;;;;;10.29;71.72;100761.22;4976271;28;45705;-69
2022/11/14 06:37:15;;;;;;;;;21.00;18.00;;;;;10.28;71.28;100768.34;4976792;28;45235;-68
2022/11/14 06:39:41;;;;;;;;;21.33;19.00;;;;;9.71;71.37;100682.38;4977337;28;46619;-70
2022/11/14 06:42:06;;;;;;;;;20.33;19.67;;;;;10.25;71.45;100762.50;4977738;28;45529;-69
2022/11/14 06:44:32;;;;;;;;;26.00;23.67;;;;;9.88;71.86;100714.53;4976919;28;45569;-69
2022/11/14 06:46:57;;;;;;;;;17.67;16.33;;;;;10.17;71.98;100773.78;4977807;28;45656;-70
2022/11/14 06:49:26;;;;;;;;;18.67;15.67;;;;;10.13;72.00;100771.53;4977416;28;46697;-71
2022/11/14 06:51:52;;;;;;;;;21.33;18.00;;;;;9.48;72.03;100661.56;4977646;28;45354;-69
2022/11/14 06:54:17;;;;;;;;;23.33;18.33;;;;;9.93;71.94;100747.63;4976846;28;45282;-70
2022/11/14 06:56:45;;;;;;;;;22.33;21.33;;;;;9.79;72.04;100728.63;4977489;28;58538;-70
2022/11/14 06:59:11;;;;;;;;;19.67;17.67;;;;;10.00;72.09;100782.44;4978159;28;46050;-69
2022/11/14 07:01:36;;;;;;;;;20.67;19.00;;;;;10.02;72.58;100789.31;4978120;28;45519;-72
2022/11/14 07:04:02;;;;;;;;;21.33;17.00;;;;;9.75;72.53;100746.66;4993319;28;45493;-72
2022/11/14 07:06:29;;;;;;;;;26.00;22.00;;;;;9.86;73.03;100783.72;4977895;28;45785;-69
2022/11/14 07:08:55;;;;;;;;;13.33;13.33;;;;;9.71;72.86;100769.16;4977916;28;45542;-70
2022/11/14 07:11:25;;;;;;;;;22.33;20.67;;;;;9.75;73.14;100787.31;4976706;28;45428;-68
2022/11/14 07:13:51;;;;;;;;;25.00;18.33;;;;;9.85;73.05;100808.59;4977715;28;45341;-68
2022/11/14 07:16:16;;;;;;;;;22.33;22.00;;;;;9.62;73.41;100762.88;4977794;28;45324;-72
2022/11/14 07:18:42;;;;;;;;;29.67;26.33;;;;;9.32;73.38;100715.16;4977763;28;46559;-69
2022/11/14 07:21:07;;;;;;;;;28.67;23.67;;;;;9.87;73.43;100803.97;4976928;28;45384;-69
2022/11/14 07:23:33;;;;;;;;;29.00;23.50;;;;;9.72;72.98;100757.56;4975774;28;45465;-68
2022/11/14 07:26:01;;;;;;;;;27.67;24.33;;;;;10.01;72.19;100792.09;4976772;28;45472;-71
2022/11/14 07:28:26;;;;;;;;;21.67;17.33;;;;;9.82;71.85;100762.88;4977700;28;46200;-70
2022/11/14 07:30:52;;;;;;;;;19.33;17.67;;;;;9.11;71.48;100670.16;4977406;28;45321;-71
2022/11/14 07:33:17;;;;;;;;;26.33;22.33;;;;;9.74;71.92;100782.97;4977737;28;45555;-69
2022/11/14 07:35:43;;;;;;;;;22.67;20.67;;;;;9.93;71.93;100807.88;4978445;28;45404;-68
2022/11/14 07:38:08;;;;;;;;;20.67;20.67;;;;;9.29;71.95;100708.31;4977738;28;45735;-69
2022/11/14 07:40:34;;;;;;;;;32.00;22.33;;;;;9.76;72.24;100780.19;4977259;28;45405;-70
2022/11/14 07:43:00;;;;;;;;;19.00;17.67;;;;;9.76;71.49;100775.72;4966893;28;45571;-68
2022/11/14 07:45:27;;;;;;;;;29.33;26.33;;;;;9.90;71.95;100795.72;4973243;28;45445;-69
2022/11/14 07:48:00;;;;;;;;;22.33;17.67;;;;;9.93;71.67;100799.91;4958816;28;47628;-68
2022/11/14 07:50:28;;;;;;;;;20.00;15.33;;;;;9.98;72.04;100800.34;4957749;28;45491;-69
2022/11/14 07:52:54;;;;;;;;;19.67;16.67;;;;;9.41;71.95;100706.38;4958592;28;45345;-71
2022/11/14 07:55:20;;;;;;;;;20.00;16.33;;;;;10.02;71.86;100799.09;4961039;28;45365;-69
2022/11/14 07:57:47;;;;;;;;;20.67;20.33;;;;;10.07;71.29;100800.34;4975392;28;47600;-70
2022/11/14 08:00:14;;;;;;;;;24.00;20.67;;;;;9.72;71.37;100749.59;4966851;28;46092;-70
2022/11/14 08:02:39;;;;;;;;;15.33;15.00;;;;;9.96;71.52;100784.53;4979178;28;45519;-70
2022/11/14 08:05:05;;;;;;;;;24.33;20.67;;;;;10.00;71.97;100777.97;4980558;28;45577;-69
2022/11/14 08:07:30;;;;;;;;;25.33;21.33;;;;;10.18;71.74;100794.03;4981121;28;45730;-71
2022/11/14 08:09:56;;;;;;;;;18.00;16.33;;;;;10.08;71.17;100769.31;4980720;28;45468;-68
2022/11/14 08:12:21;;;;;;;;;18.67;17.33;;;;;9.87;71.35;100734.94;4977401;28;45637;-69
2022/11/14 08:14:46;;;;;;;;;18.33;16.00;;;;;9.74;70.74;100719.25;4979526;28;45571;-72
2022/11/14 08:17:12;;;;;;;;;18.67;17.67;;;;;9.93;71.23;100733.53;4972420;28;53017;-71
2022/11/14 08:19:37;;;;;;;;;19.33;18.67;;;;;10.41;70.90;100789.34;4978196;28;45432;-69
2022/11/14 08:22:06;;;;;;;;;20.00;17.67;;;;;9.72;70.43;100677.91;4980908;28;45349;-69
2022/11/14 08:24:31;;;;;;;;;15.33;15.33;;;;;10.22;70.17;100766.28;4980502;28;45289;-71
2022/11/14 08:26:56;;;;;;;;;13.33;11.67;;;;;9.65;70.11;100682.13;4964279;28;45503;-70
2022/11/14 08:29:22;;;;;;;;;18.67;17.00;;;;;10.13;70.41;100751.13;4971061;28;49295;-69
2022/11/14 08:31:48;;;;;;;;;19.00;15.33;;;;;10.26;70.16;100782.75;4978770;28;45555;-73
2022/11/14 08:34:13;;;;;;;;;16.00;16.00;;;;;10.36;70.68;100800.38;4982363;28;45437;-71
2022/11/14 08:36:39;;;;;;;;;19.00;16.00;;;;;10.37;70.68;100795.88;4981639;28;46120;-70
2022/11/14 08:39:04;;;;;;;;;17.67;17.67;;;;;9.41;70.83;100638.25;4978314;28;45444;-70
2022/11/14 08:41:30;;;;;;;;;15.67;14.33;;;;;10.48;70.18;100792.25;4974964;28;45487;-70
2022/11/14 08:43:55;;;;;;;;;16.33;14.67;;;;;10.27;69.88;100764.03;4994246;28;45560;-70
2022/11/14 08:46:20;;;;;;;;;23.33;19.67;;;;;10.48;69.49;100803.72;4978725;28;46286;-70
2022/11/14 08:48:47;;;;;;;;;18.33;16.00;;;;;9.80;69.94;100704.59;4978467;28;45478;-70
2022/11/14 08:51:12;;;;;;;;;22.67;17.00;;;;;9.97;70.39;100714.50;4979491;28;45330;-69
2022/11/14 08:53:37;;;;;;;;;22.00;18.33;;;;;10.44;70.61;100810.31;4979467;28;45297;-69
2022/11/14 08:56:03;;;;;;;;;19.33;18.00;;;;;10.49;70.42;100809.88;4993035;28;47914;-69
2022/11/14 08:58:32;;;;;;;;;18.00;17.00;;;;;10.33;70.04;100784.72;4979437;28;45468;-70
2022/11/14 09:01:02;;;;;;;;;24.33;24.33;;;;;10.21;70.40;100755.75;4980376;28;46280;-71
2022/11/14 09:03:27;;;;;;;;;31.00;25.00;;;;;9.85;70.56;100730.75;4980004;28;45543;-69
2022/11/14 09:05:53;;;;;;;;;24.00;20.33;;;;;10.40;70.73;100811.53;4976753;28;46574;-70
2022/11/14 09:08:18;;;;;;;;;23.00;19.33;;;;;10.18;70.56;100767.47;4978947;28;45506;-69
2022/11/14 09:10:44;;;;;;;;;22.67;20.33;;;;;9.96;70.71;100741.22;4978271;28;45520;-69
2022/11/14 09:13:09;;;;;;;;;30.67;25.33;;;;;9.67;70.91;100673.03;4978645;28;45565;-71
2022/11/14 09:15:34;;;;;;;;;29.00;23.67;;;;;10.14;70.93;100734.22;4974584;28;62209;-70
2022/11/14 09:18:00;;;;;;;;;32.00;23.33;;;;;9.75;70.34;100656.38;4978398;28;45198;-70
2022/11/14 09:20:25;;;;;;;;;28.00;26.67;;;;;9.88;70.28;100666.72;4978211;28;45505;-69
2022/11/14 09:22:52;;;;;;;;;21.00;21.00;;;;;9.56;69.72;100613.91;4994310;28;45245;-68
2022/11/14 09:25:19;;;;;;;;;26.67;24.33;;;;;10.80;69.98;100810.50;4978638;28;45965;-70
2022/11/14 09:27:45;;;;;;;;;31.00;25.33;;;;;10.44;69.72;100754.50;4978935;28;45495;-70
2022/11/14 09:30:11;;;;;;;;;26.33;25.33;;;;;9.71;70.12;100665.63;4977095;28;45455;-70
2022/11/14 09:32:36;;;;;;;;;24.67;21.00;;;;;10.55;70.36;100810.13;4978078;28;45300;-68
2022/11/14 09:35:02;;;;;;;;;15.33;14.67;;;;;10.29;70.09;100755.91;4978608;28;46598;-69
2022/11/14 09:37:28;;;;;;;;;23.67;20.00;;;;;9.80;70.44;100670.06;4993980;28;45457;-70
2022/11/14 09:39:53;;;;;;;;;28.33;24.67;;;;;10.68;70.00;100787.75;4978495;28;45656;-73
2022/11/14 09:42:27;;;;;;;;;20.00;18.33;;;;;10.70;70.27;100796.41;4976229;28;45913;-69
2022/11/14 09:44:55;;;;;;;;;24.00;20.33;;;;;10.84;69.22;100795.97;4977587;28;46481;-70
2022/11/14 09:47:45;;;;;;;;;26.00;21.00;;;;;10.86;68.64;100786.00;4976953;28;45383;-72
2022/11/14 09:50:18;;;;;;;;;21.33;19.00;;;;;10.71;68.75;100766.19;4973188;28;45580;-68
2022/11/14 09:52:53;;;;;;;;;23.00;21.33;;;;;10.92;69.50;100806.72;4974211;28;45539;-72
2022/11/14 09:55:36;;;;;;;;;21.33;19.67;;;;;11.04;69.43;100792.25;4978188;28;46401;-71
2022/11/14 09:58:02;;;;;;;;;21.67;20.33;;;;;10.80;68.66;100750.19;4978461;28;45431;-72
2022/11/14 10:00:45;;;;;;;;;22.00;21.67;;;;;11.01;68.71;100779.22;4978818;28;45303;-70
2022/11/14 10:03:51;;;;;;;;;19.67;18.33;;;;;11.12;68.19;100792.34;4977344;28;45401;-70
2022/11/14 10:06:34;;;;;;;;;20.67;18.33;;;;;11.20;68.53;100786.28;4928233;28;45759;-71
2022/11/14 10:09:18;;;;;;;;;22.00;19.33;;;;;11.24;68.03;100804.50;4974783;28;45312;-68
2022/11/14 10:12:06;;;;;;;;;25.00;21.00;;;;;11.28;68.06;100797.88;4959061;28;45566;-70
2022/11/14 10:14:56;;;;;;;;;16.67;16.00;;;;;11.35;67.92;100794.63;4959791;28;45504;-71
2022/11/14 10:17:46;;;;;;;;;21.00;20.00;;;;;11.40;67.56;100795.84;4960770;28;45901;-69
2022/11/14 10:20:26;;;;;;;;;20.33;19.33;;;;;10.61;67.03;100670.47;4958264;28;45584;-72
2022/11/14 10:23:17;;;;;;;;;22.00;19.33;;;;;10.47;67.43;100644.38;4984487;28;45361;-67
2022/11/14 10:25:54;;;;;;;;;20.00;18.00;;;;;10.82;67.75;100688.91;4959955;28;45632;-70
2022/11/14 10:28:41;;;;;;;;;21.67;19.00;;;;;11.44;67.36;100764.47;4975256;28;45845;-71
2022/11/14 10:31:24;;;;;;;;;24.00;22.33;;;;;11.27;66.98;100711.06;4968776;28;45556;-70
2022/11/14 10:33:58;;;;;;;;;22.00;18.33;;;;;11.76;66.82;100779.94;4979564;28;45570;-72
2022/11/14 10:36:33;;;;;;;;;24.67;22.00;;;;;11.78;66.33;100770.84;4977940;28;45536;-70
2022/11/14 10:39:20;;;;;;;;;26.33;18.33;;;;;11.90;66.35;100770.63;4976864;28;46910;-70
2022/11/14 10:41:48;;;;;;;;;29.00;25.67;;;;;10.02;66.39;100465.28;4978818;28;45502;-71
2022/11/14 10:44:21;;;;;;;;;23.67;23.67;;;;;11.72;66.34;100728.81;4980088;28;45365;-71
2022/11/14 10:46:53;;;;;;;;;26.33;23.67;;;;;11.99;66.15;100753.72;4971243;28;45441;-73
2022/11/14 10:49:21;;;;;;;;;27.00;24.33;;;;;12.13;65.97;100769.19;4978339;28;46976;-70
2022/11/14 10:51:53;;;;;;;;;28.00;24.67;;;;;11.51;65.76;100638.59;4977719;28;45314;-72
2022/11/14 10:54:26;;;;;;;;;29.00;26.00;;;;;12.26;65.27;100758.97;4977621;28;45433;-71
2022/11/14 10:56:53;;;;;;;;;20.33;18.33;;;;;11.84;65.49;100693.00;4978571;28;45317;-72
2022/11/14 10:59:20;;;;;;;;;23.00;22.67;;;;;11.92;65.40;100689.56;4975637;28;46937;-70
2022/11/14 11:01:54;;;;;;;;;24.00;21.67;;;;;12.26;65.62;100755.47;4992589;28;45373;-72
2022/11/14 11:04:29;;;;;;;;;29.67;28.00;;;;;12.21;65.99;100753.25;4977957;28;45439;-73
2022/11/14 11:13:08;;;;;;;;;29.33;29.00;;;;;11.91;65.69;100708.38;4977688;28;45566;-70
2022/11/14 11:15:41;;;;;;;;;36.67;30.33;;;;;11.55;65.79;100655.09;4992958;28;45381;-74
2022/11/14 11:18:24;;;;;;;;;29.67;28.00;;;;;12.13;66.28;100745.19;4978001;28;45350;-70
2022/11/14 11:21:13;;;;;;;;;37.67;33.00;;;;;12.12;66.19;100746.19;4976890;28;46302;-70